sensor_id;sensor_type;location;lat;lon;timestamp;temperature;humidity
8709;DHT22;4391;48.678;9.280;2023-07-16T00:00:31;27.60;99.90
8709;DHT22;4391;48.678;9.280;2023-07-16T00:02:58;27.60;99.90
8709;DHT22;4391;48.678;9.280;2023-07-16T00:05:25;27.60;99.90
8709;DHT22;4391;48.678;9.280;2023-07-16T00:07:52;27.60;99.90
8709;DHT22;4391;48.678;9.280;2023-07-16T00:10:20;27.60;99.90
8709;DHT22;4391;48.678;9.280;2023-07-16T00:12:47;27.60;99.90
8709;DHT22;4391;48.678;9.280;2023-07-16T00:15:14;27.60;99.90
8709;DHT22;4391;48.678;9.280;2023-07-16T00:17:40;27.60;99.90
8709;DHT22;4391;48.678;9.280;2023-07-16T00:20:08;27.60;99.90
8709;DHT22;4391;48.678;9.280;2023-07-16T00:22:35;27.60;99.90
8709;DHT22;4391;48.678;9.280;2023-07-16T00:25:05;27.60;99.90
8709;DHT22;4391;48.678;9.280;2023-07-16T00:27:33;27.60;99.90
8709;DHT22;4391;48.678;9.280;2023-07-16T00:30:00;27.60;99.90
8709;DHT22;4391;48.678;9.280;2023-07-16T00:32:27;27.60;99.90
8709;DHT22;4391;48.678;9.280;2023-07-16T00:34:53;27.60;99.90
8709;DHT22;4391;48.678;9.280;2023-07-16T00:37:20;27.60;99.90
8709;DHT22;4391;48.678;9.280;2023-07-16T00:39:47;27.60;99.90
8709;DHT22;4391;48.678;9.280;2023-07-16T00:42:14;27.60;99.90
8709;DHT22;4391;48.678;9.280;2023-07-16T00:44:42;27.60;99.90
8709;DHT22;4391;48.678;9.280;2023-07-16T00:47:09;27.60;99.90
8709;DHT22;4391;48.678;9.280;2023-07-16T00:49:37;27.60;99.90
8709;DHT22;4391;48.678;9.280;2023-07-16T00:52:05;27.60;99.90
8709;DHT22;4391;48.678;9.280;2023-07-16T00:54:32;27.60;99.90
8709;DHT22;4391;48.678;9.280;2023-07-16T00:56:59;27.60;99.90
8709;DHT22;4391;48.678;9.280;2023-07-16T00:59:25;27.60;99.90
8709;DHT22;4391;48.678;9.280;2023-07-16T01:01:54;27.60;99.90
8709;DHT22;4391;48.678;9.280;2023-07-16T01:04:20;27.60;99.90
8709;DHT22;4391;48.678;9.280;2023-07-16T01:06:50;27.60;99.90
8709;DHT22;4391;48.678;9.280;2023-07-16T01:09:19;27.60;99.90
8709;DHT22;4391;48.678;9.280;2023-07-16T01:11:47;27.60;99.90
8709;DHT22;4391;48.678;9.280;2023-07-16T01:14:16;27.60;99.90
8709;DHT22;4391;48.678;9.280;2023-07-16T01:16:43;27.60;99.90
8709;DHT22;4391;48.678;9.280;2023-07-16T01:19:12;27.60;99.90
8709;DHT22;4391;48.678;9.280;2023-07-16T01:21:45;27.60;99.90
8709;DHT22;4391;48.678;9.280;2023-07-16T01:27:27;27.60;99.90
8709;DHT22;4391;48.678;9.280;2023-07-16T01:29:58;27.60;99.90
8709;DHT22;4391;48.678;9.280;2023-07-16T01:32:28;27.50;99.90
8709;DHT22;4391;48.678;9.280;2023-07-16T01:34:57;27.60;99.90
8709;DHT22;4391;48.678;9.280;2023-07-16T01:37:24;27.60;99.90
8709;DHT22;4391;48.678;9.280;2023-07-16T01:39:51;27.60;99.90
8709;DHT22;4391;48.678;9.280;2023-07-16T01:42:18;27.50;99.90
8709;DHT22;4391;48.678;9.280;2023-07-16T01:44:45;27.60;99.90
8709;DHT22;4391;48.678;9.280;2023-07-16T01:47:17;27.60;99.90
8709;DHT22;4391;48.678;9.280;2023-07-16T01:49:47;27.60;99.90
8709;DHT22;4391;48.678;9.280;2023-07-16T01:52:14;27.60;99.90
8709;DHT22;4391;48.678;9.280;2023-07-16T01:54:40;27.60;99.90
8709;DHT22;4391;48.678;9.280;2023-07-16T01:57:07;27.60;99.90
8709;DHT22;4391;48.678;9.280;2023-07-16T01:59:34;27.60;99.90
8709;DHT22;4391;48.678;9.280;2023-07-16T02:02:01;27.50;99.90
8709;DHT22;4391;48.678;9.280;2023-07-16T02:04:29;27.60;99.90
8709;DHT22;4391;48.678;9.280;2023-07-16T02:06:56;27.60;99.90
8709;DHT22;4391;48.678;9.280;2023-07-16T02:09:23;27.60;99.90
8709;DHT22;4391;48.678;9.280;2023-07-16T02:11:50;27.60;99.90
8709;DHT22;4391;48.678;9.280;2023-07-16T02:14:17;27.60;99.90
8709;DHT22;4391;48.678;9.280;2023-07-16T02:16:44;27.60;99.90
8709;DHT22;4391;48.678;9.280;2023-07-16T02:19:11;27.60;99.90
8709;DHT22;4391;48.678;9.280;2023-07-16T02:21:39;27.60;99.90
8709;DHT22;4391;48.678;9.280;2023-07-16T02:24:06;27.50;99.90
8709;DHT22;4391;48.678;9.280;2023-07-16T02:26:33;27.60;99.90
8709;DHT22;4391;48.678;9.280;2023-07-16T02:29:00;27.60;99.90
8709;DHT22;4391;48.678;9.280;2023-07-16T02:31:27;27.60;99.90
8709;DHT22;4391;48.678;9.280;2023-07-16T02:33:54;27.50;99.90
8709;DHT22;4391;48.678;9.280;2023-07-16T02:36:20;27.50;99.90
8709;DHT22;4391;48.678;9.280;2023-07-16T02:38:48;27.50;99.90
8709;DHT22;4391;48.678;9.280;2023-07-16T02:41:15;27.60;99.90
8709;DHT22;4391;48.678;9.280;2023-07-16T02:43:42;27.60;99.90
8709;DHT22;4391;48.678;9.280;2023-07-16T02:46:09;27.60;99.90
8709;DHT22;4391;48.678;9.280;2023-07-16T02:48:36;27.60;99.90
8709;DHT22;4391;48.678;9.280;2023-07-16T02:51:02;27.60;99.90
8709;DHT22;4391;48.678;9.280;2023-07-16T02:53:29;27.50;99.90
8709;DHT22;4391;48.678;9.280;2023-07-16T02:55:57;27.60;99.90
8709;DHT22;4391;48.678;9.280;2023-07-16T02:58:24;27.50;99.90
8709;DHT22;4391;48.678;9.280;2023-07-16T03:00:51;27.50;99.90
8709;DHT22;4391;48.678;9.280;2023-07-16T03:03:18;27.50;99.90
8709;DHT22;4391;48.678;9.280;2023-07-16T03:05:44;27.50;99.90
8709;DHT22;4391;48.678;9.280;2023-07-16T03:08:11;27.50;99.90
8709;DHT22;4391;48.678;9.280;2023-07-16T03:10:38;27.50;99.90
8709;DHT22;4391;48.678;9.280;2023-07-16T03:13:06;27.50;99.90
8709;DHT22;4391;48.678;9.280;2023-07-16T03:15:33;27.50;99.90
8709;DHT22;4391;48.678;9.280;2023-07-16T03:18:00;27.50;99.90
8709;DHT22;4391;48.678;9.280;2023-07-16T03:20:27;27.50;99.90
8709;DHT22;4391;48.678;9.280;2023-07-16T03:22:54;27.50;99.90
8709;DHT22;4391;48.678;9.280;2023-07-16T03:25:20;27.50;99.90
8709;DHT22;4391;48.678;9.280;2023-07-16T03:27:47;27.50;99.90
8709;DHT22;4391;48.678;9.280;2023-07-16T03:30:15;27.50;99.90
8709;DHT22;4391;48.678;9.280;2023-07-16T03:32:42;27.50;99.90
8709;DHT22;4391;48.678;9.280;2023-07-16T03:35:09;27.50;99.90
8709;DHT22;4391;48.678;9.280;2023-07-16T03:37:36;27.50;99.90
8709;DHT22;4391;48.678;9.280;2023-07-16T03:40:13;27.50;99.90
8709;DHT22;4391;48.678;9.280;2023-07-16T03:42:40;27.50;99.90
8709;DHT22;4391;48.678;9.280;2023-07-16T03:45:09;27.50;99.90
8709;DHT22;4391;48.678;9.280;2023-07-16T03:47:37;27.50;99.90
8709;DHT22;4391;48.678;9.280;2023-07-16T03:50:05;27.50;99.90
8709;DHT22;4391;48.678;9.280;2023-07-16T03:52:32;27.50;99.90
8709;DHT22;4391;48.678;9.280;2023-07-16T03:54:59;27.50;99.90
8709;DHT22;4391;48.678;9.280;2023-07-16T03:59:53;27.50;99.90
8709;DHT22;4391;48.678;9.280;2023-07-16T04:02:20;27.50;99.90
8709;DHT22;4391;48.678;9.280;2023-07-16T04:04:48;27.50;99.90
8709;DHT22;4391;48.678;9.280;2023-07-16T04:07:15;27.50;99.90
8709;DHT22;4391;48.678;9.280;2023-07-16T04:09:42;27.50;99.90
8709;DHT22;4391;48.678;9.280;2023-07-16T04:12:09;27.50;99.90
8709;DHT22;4391;48.678;9.280;2023-07-16T04:14:36;27.50;99.90
8709;DHT22;4391;48.678;9.280;2023-07-16T04:17:03;27.50;99.90
8709;DHT22;4391;48.678;9.280;2023-07-16T04:19:30;27.50;99.90
8709;DHT22;4391;48.678;9.280;2023-07-16T04:21:58;27.50;99.90
8709;DHT22;4391;48.678;9.280;2023-07-16T04:24:24;27.50;99.90
8709;DHT22;4391;48.678;9.280;2023-07-16T04:26:52;27.50;99.90
8709;DHT22;4391;48.678;9.280;2023-07-16T04:29:20;27.50;99.90
8709;DHT22;4391;48.678;9.280;2023-07-16T04:31:46;27.50;99.90
8709;DHT22;4391;48.678;9.280;2023-07-16T04:34:13;27.50;99.90
8709;DHT22;4391;48.678;9.280;2023-07-16T04:36:42;27.40;99.90
8709;DHT22;4391;48.678;9.280;2023-07-16T04:39:10;27.40;99.90
8709;DHT22;4391;48.678;9.280;2023-07-16T04:41:37;27.50;99.90
8709;DHT22;4391;48.678;9.280;2023-07-16T04:44:04;27.50;99.90
8709;DHT22;4391;48.678;9.280;2023-07-16T04:46:31;27.50;99.90
8709;DHT22;4391;48.678;9.280;2023-07-16T04:48:58;27.50;99.90
8709;DHT22;4391;48.678;9.280;2023-07-16T04:51:25;27.50;99.90
8709;DHT22;4391;48.678;9.280;2023-07-16T04:53:52;27.50;99.90
8709;DHT22;4391;48.678;9.280;2023-07-16T04:56:20;27.50;99.90
8709;DHT22;4391;48.678;9.280;2023-07-16T04:58:47;27.50;99.90
8709;DHT22;4391;48.678;9.280;2023-07-16T05:01:13;27.50;99.90
8709;DHT22;4391;48.678;9.280;2023-07-16T05:03:40;27.50;99.90
8709;DHT22;4391;48.678;9.280;2023-07-16T05:06:07;27.50;99.90
8709;DHT22;4391;48.678;9.280;2023-07-16T05:08:34;27.50;99.90
8709;DHT22;4391;48.678;9.280;2023-07-16T05:11:01;27.50;99.90
8709;DHT22;4391;48.678;9.280;2023-07-16T05:13:29;27.50;99.90
8709;DHT22;4391;48.678;9.280;2023-07-16T05:15:56;27.50;99.90
8709;DHT22;4391;48.678;9.280;2023-07-16T05:18:23;27.50;99.90
8709;DHT22;4391;48.678;9.280;2023-07-16T05:20:50;27.50;99.90
8709;DHT22;4391;48.678;9.280;2023-07-16T05:23:16;27.50;99.90
8709;DHT22;4391;48.678;9.280;2023-07-16T05:25:46;27.50;99.90
8709;DHT22;4391;48.678;9.280;2023-07-16T05:28:13;27.50;99.90
8709;DHT22;4391;48.678;9.280;2023-07-16T05:30:41;27.50;99.90
8709;DHT22;4391;48.678;9.280;2023-07-16T05:33:09;27.50;99.90
8709;DHT22;4391;48.678;9.280;2023-07-16T05:35:36;27.50;99.90
8709;DHT22;4391;48.678;9.280;2023-07-16T05:38:03;27.50;99.90
8709;DHT22;4391;48.678;9.280;2023-07-16T05:40:29;27.40;99.90
8709;DHT22;4391;48.678;9.280;2023-07-16T05:42:56;27.50;99.90
8709;DHT22;4391;48.678;9.280;2023-07-16T05:45:23;27.50;99.90
8709;DHT22;4391;48.678;9.280;2023-07-16T05:47:51;27.50;99.90
8709;DHT22;4391;48.678;9.280;2023-07-16T05:50:18;27.50;99.90
8709;DHT22;4391;48.678;9.280;2023-07-16T05:52:45;27.50;99.90
8709;DHT22;4391;48.678;9.280;2023-07-16T05:55:13;27.50;99.90
8709;DHT22;4391;48.678;9.280;2023-07-16T05:57:40;27.50;99.90
8709;DHT22;4391;48.678;9.280;2023-07-16T06:00:08;27.50;99.90
8709;DHT22;4391;48.678;9.280;2023-07-16T06:02:35;27.50;99.90
8709;DHT22;4391;48.678;9.280;2023-07-16T06:05:04;27.50;99.90
8709;DHT22;4391;48.678;9.280;2023-07-16T06:07:31;27.50;99.90
8709;DHT22;4391;48.678;9.280;2023-07-16T06:09:58;27.50;99.90
8709;DHT22;4391;48.678;9.280;2023-07-16T06:12:25;27.50;99.90
8709;DHT22;4391;48.678;9.280;2023-07-16T06:14:53;27.50;99.90
8709;DHT22;4391;48.678;9.280;2023-07-16T06:17:20;27.50;99.90
8709;DHT22;4391;48.678;9.280;2023-07-16T06:19:47;27.50;99.90
8709;DHT22;4391;48.678;9.280;2023-07-16T06:22:17;27.50;99.90
8709;DHT22;4391;48.678;9.280;2023-07-16T06:24:43;27.50;99.90
8709;DHT22;4391;48.678;9.280;2023-07-16T06:27:10;27.50;99.90
8709;DHT22;4391;48.678;9.280;2023-07-16T06:29:37;27.50;99.90
8709;DHT22;4391;48.678;9.280;2023-07-16T06:32:04;27.50;99.90
8709;DHT22;4391;48.678;9.280;2023-07-16T06:34:31;27.50;99.90
8709;DHT22;4391;48.678;9.280;2023-07-16T06:36:58;27.50;99.90
8709;DHT22;4391;48.678;9.280;2023-07-16T06:39:26;27.50;99.90
8709;DHT22;4391;48.678;9.280;2023-07-16T06:41:53;27.50;99.90
8709;DHT22;4391;48.678;9.280;2023-07-16T06:44:21;27.50;99.90
8709;DHT22;4391;48.678;9.280;2023-07-16T06:46:48;27.50;99.90
8709;DHT22;4391;48.678;9.280;2023-07-16T06:49:15;27.50;99.90
8709;DHT22;4391;48.678;9.280;2023-07-16T06:51:42;27.50;99.90
8709;DHT22;4391;48.678;9.280;2023-07-16T06:54:08;27.50;99.90
8709;DHT22;4391;48.678;9.280;2023-07-16T06:56:37;27.60;99.90
8709;DHT22;4391;48.678;9.280;2023-07-16T06:59:03;27.60;99.90
8709;DHT22;4391;48.678;9.280;2023-07-16T07:01:30;27.60;99.90
8709;DHT22;4391;48.678;9.280;2023-07-16T07:03:57;27.60;99.90
8709;DHT22;4391;48.678;9.280;2023-07-16T07:06:24;27.60;99.90
8709;DHT22;4391;48.678;9.280;2023-07-16T07:08:51;27.60;99.90
8709;DHT22;4391;48.678;9.280;2023-07-16T07:11:17;27.60;99.90
8709;DHT22;4391;48.678;9.280;2023-07-16T07:13:45;27.60;99.90
8709;DHT22;4391;48.678;9.280;2023-07-16T07:16:12;27.60;99.90
8709;DHT22;4391;48.678;9.280;2023-07-16T07:18:39;27.60;99.90
8709;DHT22;4391;48.678;9.280;2023-07-16T07:21:06;27.60;99.90
8709;DHT22;4391;48.678;9.280;2023-07-16T07:23:33;27.60;99.90
8709;DHT22;4391;48.678;9.280;2023-07-16T07:25:59;27.60;99.90
8709;DHT22;4391;48.678;9.280;2023-07-16T07:28:27;27.60;99.90
8709;DHT22;4391;48.678;9.280;2023-07-16T07:30:55;27.60;99.90
8709;DHT22;4391;48.678;9.280;2023-07-16T07:33:22;27.60;99.90
8709;DHT22;4391;48.678;9.280;2023-07-16T07:35:49;27.60;99.90
8709;DHT22;4391;48.678;9.280;2023-07-16T07:38:21;27.60;99.90
8709;DHT22;4391;48.678;9.280;2023-07-16T07:40:47;27.60;99.90
8709;DHT22;4391;48.678;9.280;2023-07-16T07:43:14;27.70;99.90
8709;DHT22;4391;48.678;9.280;2023-07-16T07:45:41;27.70;99.90
8709;DHT22;4391;48.678;9.280;2023-07-16T07:48:09;27.70;99.90
8709;DHT22;4391;48.678;9.280;2023-07-16T07:50:36;27.70;99.90
8709;DHT22;4391;48.678;9.280;2023-07-16T07:53:03;27.70;99.90
8709;DHT22;4391;48.678;9.280;2023-07-16T07:55:29;27.70;99.90
8709;DHT22;4391;48.678;9.280;2023-07-16T07:57:56;27.70;99.90
8709;DHT22;4391;48.678;9.280;2023-07-16T08:00:23;27.80;99.90
8709;DHT22;4391;48.678;9.280;2023-07-16T08:02:50;27.70;99.90
8709;DHT22;4391;48.678;9.280;2023-07-16T08:05:18;27.80;99.90
8709;DHT22;4391;48.678;9.280;2023-07-16T08:07:45;27.70;99.90
8709;DHT22;4391;48.678;9.280;2023-07-16T08:10:13;27.70;99.90
8709;DHT22;4391;48.678;9.280;2023-07-16T08:12:39;27.70;99.90
8709;DHT22;4391;48.678;9.280;2023-07-16T08:15:07;27.70;99.90
8709;DHT22;4391;48.678;9.280;2023-07-16T08:17:39;27.80;99.90
8709;DHT22;4391;48.678;9.280;2023-07-16T08:20:07;27.70;99.90
8709;DHT22;4391;48.678;9.280;2023-07-16T08:22:35;27.80;99.90
8709;DHT22;4391;48.678;9.280;2023-07-16T08:25:02;27.80;99.90
8709;DHT22;4391;48.678;9.280;2023-07-16T08:27:29;27.80;99.90
8709;DHT22;4391;48.678;9.280;2023-07-16T08:29:57;27.90;99.90
8709;DHT22;4391;48.678;9.280;2023-07-16T08:32:24;27.90;99.90
8709;DHT22;4391;48.678;9.280;2023-07-16T08:34:50;27.90;99.90
8709;DHT22;4391;48.678;9.280;2023-07-16T08:37:17;27.90;99.90
8709;DHT22;4391;48.678;9.280;2023-07-16T08:39:45;27.90;99.90
8709;DHT22;4391;48.678;9.280;2023-07-16T08:42:14;27.90;99.90
8709;DHT22;4391;48.678;9.280;2023-07-16T08:44:41;27.90;99.90
8709;DHT22;4391;48.678;9.280;2023-07-16T08:47:07;27.90;99.90
8709;DHT22;4391;48.678;9.280;2023-07-16T08:49:35;28.00;99.90
8709;DHT22;4391;48.678;9.280;2023-07-16T08:52:02;27.90;99.90
8709;DHT22;4391;48.678;9.280;2023-07-16T08:54:31;28.00;99.90
8709;DHT22;4391;48.678;9.280;2023-07-16T08:56:59;28.00;99.90
8709;DHT22;4391;48.678;9.280;2023-07-16T08:59:27;28.10;99.90
8709;DHT22;4391;48.678;9.280;2023-07-16T09:01:54;28.10;99.90
8709;DHT22;4391;48.678;9.280;2023-07-16T09:04:21;28.20;99.90
8709;DHT22;4391;48.678;9.280;2023-07-16T09:06:48;28.20;99.90
8709;DHT22;4391;48.678;9.280;2023-07-16T09:09:19;28.20;99.90
8709;DHT22;4391;48.678;9.280;2023-07-16T09:11:47;28.20;99.90
8709;DHT22;4391;48.678;9.280;2023-07-16T09:14:17;28.10;99.90
8709;DHT22;4391;48.678;9.280;2023-07-16T09:16:48;28.20;99.90
8709;DHT22;4391;48.678;9.280;2023-07-16T09:19:15;28.30;99.90
8709;DHT22;4391;48.678;9.280;2023-07-16T09:21:46;28.30;99.90
8709;DHT22;4391;48.678;9.280;2023-07-16T09:24:13;28.30;99.90
8709;DHT22;4391;48.678;9.280;2023-07-16T09:26:47;28.30;99.90
8709;DHT22;4391;48.678;9.280;2023-07-16T09:29:16;28.30;99.90
8709;DHT22;4391;48.678;9.280;2023-07-16T09:31:53;28.40;99.90
8709;DHT22;4391;48.678;9.280;2023-07-16T09:34:20;28.40;99.90
8709;DHT22;4391;48.678;9.280;2023-07-16T09:36:47;28.40;99.90
8709;DHT22;4391;48.678;9.280;2023-07-16T09:39:17;28.30;99.90
8709;DHT22;4391;48.678;9.280;2023-07-16T09:41:45;28.30;99.90
8709;DHT22;4391;48.678;9.280;2023-07-16T09:44:12;28.30;99.90
8709;DHT22;4391;48.678;9.280;2023-07-16T09:46:41;28.30;99.90
8709;DHT22;4391;48.678;9.280;2023-07-16T09:49:08;28.30;99.90
8709;DHT22;4391;48.678;9.280;2023-07-16T09:51:35;28.30;99.90
8709;DHT22;4391;48.678;9.280;2023-07-16T09:54:03;28.20;99.90
8709;DHT22;4391;48.678;9.280;2023-07-16T09:56:35;28.30;99.90
8709;DHT22;4391;48.678;9.280;2023-07-16T09:59:07;28.30;99.90
8709;DHT22;4391;48.678;9.280;2023-07-16T10:01:35;28.30;99.90
8709;DHT22;4391;48.678;9.280;2023-07-16T10:04:12;28.30;99.90
8709;DHT22;4391;48.678;9.280;2023-07-16T10:06:52;28.40;99.90
8709;DHT22;4391;48.678;9.280;2023-07-16T10:09:34;28.50;99.90
8709;DHT22;4391;48.678;9.280;2023-07-16T10:12:18;28.50;99.90
8709;DHT22;4391;48.678;9.280;2023-07-16T10:14:46;28.50;99.90
8709;DHT22;4391;48.678;9.280;2023-07-16T10:17:18;28.50;99.90
8709;DHT22;4391;48.678;9.280;2023-07-16T10:19:51;28.50;99.90
8709;DHT22;4391;48.678;9.280;2023-07-16T10:24:40;31.30;99.90
8709;DHT22;4391;48.678;9.280;2023-07-16T10:27:07;32.80;99.90
8709;DHT22;4391;48.678;9.280;2023-07-16T10:29:34;34.40;99.90
8709;DHT22;4391;48.678;9.280;2023-07-16T10:32:02;34.00;99.90
8709;DHT22;4391;48.678;9.280;2023-07-16T10:34:29;33.10;99.90
8709;DHT22;4391;48.678;9.280;2023-07-16T10:36:56;31.10;99.90
8709;DHT22;4391;48.678;9.280;2023-07-16T10:39:23;29.90;99.90
8709;DHT22;4391;48.678;9.280;2023-07-16T10:41:51;29.30;99.90
8709;DHT22;4391;48.678;9.280;2023-07-16T10:44:20;28.60;99.90
8709;DHT22;4391;48.678;9.280;2023-07-16T10:46:48;28.80;99.90
8709;DHT22;4391;48.678;9.280;2023-07-16T10:49:15;28.90;99.90
8709;DHT22;4391;48.678;9.280;2023-07-16T10:51:41;28.70;99.90
8709;DHT22;4391;48.678;9.280;2023-07-16T10:54:08;28.00;99.90
8709;DHT22;4391;48.678;9.280;2023-07-16T10:56:36;27.60;99.90
8709;DHT22;4391;48.678;9.280;2023-07-16T10:59:10;27.40;99.90
8709;DHT22;4391;48.678;9.280;2023-07-16T11:01:38;28.40;99.90
8709;DHT22;4391;48.678;9.280;2023-07-16T11:06:34;30.10;99.90
8709;DHT22;4391;48.678;9.280;2023-07-16T11:09:06;30.80;99.90
8709;DHT22;4391;48.678;9.280;2023-07-16T11:11:32;31.30;99.90
8709;DHT22;4391;48.678;9.280;2023-07-16T11:13:59;31.20;99.90
8709;DHT22;4391;48.678;9.280;2023-07-16T11:16:27;30.50;99.90
8709;DHT22;4391;48.678;9.280;2023-07-16T11:18:59;30.00;99.90
8709;DHT22;4391;48.678;9.280;2023-07-16T11:21:27;30.40;99.90
8709;DHT22;4391;48.678;9.280;2023-07-16T11:23:54;31.30;99.90
8709;DHT22;4391;48.678;9.280;2023-07-16T11:26:21;32.10;99.90
8709;DHT22;4391;48.678;9.280;2023-07-16T11:28:50;33.20;99.90
8709;DHT22;4391;48.678;9.280;2023-07-16T11:31:18;33.10;99.90
8709;DHT22;4391;48.678;9.280;2023-07-16T11:33:46;33.10;99.90
8709;DHT22;4391;48.678;9.280;2023-07-16T11:36:13;33.00;99.90
8709;DHT22;4391;48.678;9.280;2023-07-16T11:38:39;32.90;99.90
8709;DHT22;4391;48.678;9.280;2023-07-16T11:41:06;33.80;99.90
8709;DHT22;4391;48.678;9.280;2023-07-16T11:43:36;34.00;99.90
8709;DHT22;4391;48.678;9.280;2023-07-16T11:46:02;34.30;99.90
8709;DHT22;4391;48.678;9.280;2023-07-16T11:48:29;33.40;99.90
8709;DHT22;4391;48.678;9.280;2023-07-16T11:50:57;32.70;99.90
8709;DHT22;4391;48.678;9.280;2023-07-16T11:53:23;32.20;99.90
8709;DHT22;4391;48.678;9.280;2023-07-16T11:55:50;31.60;99.90
8709;DHT22;4391;48.678;9.280;2023-07-16T11:58:17;31.50;99.90
8709;DHT22;4391;48.678;9.280;2023-07-16T12:00:43;31.60;99.90
8709;DHT22;4391;48.678;9.280;2023-07-16T12:03:10;31.90;99.90
8709;DHT22;4391;48.678;9.280;2023-07-16T12:05:36;32.90;99.90
8709;DHT22;4391;48.678;9.280;2023-07-16T12:08:05;33.60;99.90
8709;DHT22;4391;48.678;9.280;2023-07-16T12:10:31;33.90;99.90
8709;DHT22;4391;48.678;9.280;2023-07-16T12:12:58;34.00;99.90
8709;DHT22;4391;48.678;9.280;2023-07-16T12:15:25;34.60;99.90
8709;DHT22;4391;48.678;9.280;2023-07-16T12:17:52;35.10;99.90
8709;DHT22;4391;48.678;9.280;2023-07-16T12:20:18;35.80;99.90
8709;DHT22;4391;48.678;9.280;2023-07-16T12:22:45;36.10;99.90
8709;DHT22;4391;48.678;9.280;2023-07-16T12:25:13;36.50;99.90
8709;DHT22;4391;48.678;9.280;2023-07-16T12:27:40;35.50;99.90
8709;DHT22;4391;48.678;9.280;2023-07-16T12:30:07;35.30;99.90
8709;DHT22;4391;48.678;9.280;2023-07-16T12:32:34;35.30;99.90
8709;DHT22;4391;48.678;9.280;2023-07-16T12:35:00;35.30;99.90
8709;DHT22;4391;48.678;9.280;2023-07-16T12:37:28;35.70;99.90
8709;DHT22;4391;48.678;9.280;2023-07-16T12:40:09;35.30;99.90
8709;DHT22;4391;48.678;9.280;2023-07-16T12:42:37;34.30;99.90
8709;DHT22;4391;48.678;9.280;2023-07-16T12:45:03;34.80;99.90
8709;DHT22;4391;48.678;9.280;2023-07-16T12:47:30;33.90;99.90
8709;DHT22;4391;48.678;9.280;2023-07-16T12:49:57;33.90;99.90
8709;DHT22;4391;48.678;9.280;2023-07-16T12:52:24;33.80;99.90
8709;DHT22;4391;48.678;9.280;2023-07-16T12:54:51;33.20;99.80
8709;DHT22;4391;48.678;9.280;2023-07-16T12:57:19;31.60;94.60
8709;DHT22;4391;48.678;9.280;2023-07-16T12:59:46;31.00;92.00
8709;DHT22;4391;48.678;9.280;2023-07-16T13:02:12;30.90;92.60
8709;DHT22;4391;48.678;9.280;2023-07-16T13:04:39;31.10;92.70
8709;DHT22;4391;48.678;9.280;2023-07-16T13:07:06;31.50;94.60
8709;DHT22;4391;48.678;9.280;2023-07-16T13:09:35;32.10;96.40
8709;DHT22;4391;48.678;9.280;2023-07-16T13:12:02;32.50;97.60
8709;DHT22;4391;48.678;9.280;2023-07-16T13:14:30;32.50;97.80
8709;DHT22;4391;48.678;9.280;2023-07-16T13:16:57;31.40;93.40
8709;DHT22;4391;48.678;9.280;2023-07-16T13:19:26;30.90;91.60
8709;DHT22;4391;48.678;9.280;2023-07-16T13:21:53;30.40;90.60
8709;DHT22;4391;48.678;9.280;2023-07-16T13:24:20;29.30;85.50
8709;DHT22;4391;48.678;9.280;2023-07-16T13:26:47;29.00;83.80
8709;DHT22;4391;48.678;9.280;2023-07-16T13:29:14;29.00;84.40
8709;DHT22;4391;48.678;9.280;2023-07-16T13:31:42;28.80;84.00
8709;DHT22;4391;48.678;9.280;2023-07-16T13:34:08;29.00;88.00
8709;DHT22;4391;48.678;9.280;2023-07-16T13:36:35;29.30;90.50
8709;DHT22;4391;48.678;9.280;2023-07-16T13:39:02;30.20;93.90
8709;DHT22;4391;48.678;9.280;2023-07-16T13:41:31;32.10;99.90
8709;DHT22;4391;48.678;9.280;2023-07-16T13:43:57;34.10;99.90
8709;DHT22;4391;48.678;9.280;2023-07-16T13:46:24;35.50;99.90
8709;DHT22;4391;48.678;9.280;2023-07-16T13:48:52;35.80;99.90
8709;DHT22;4391;48.678;9.280;2023-07-16T13:51:19;36.40;99.90
8709;DHT22;4391;48.678;9.280;2023-07-16T13:53:46;37.50;99.90
8709;DHT22;4391;48.678;9.280;2023-07-16T13:56:13;38.30;99.90
8709;DHT22;4391;48.678;9.280;2023-07-16T13:58:39;37.10;99.90
8709;DHT22;4391;48.678;9.280;2023-07-16T14:01:06;37.40;99.90
8709;DHT22;4391;48.678;9.280;2023-07-16T14:03:33;36.90;99.90
8709;DHT22;4391;48.678;9.280;2023-07-16T14:06:01;37.60;99.90
8709;DHT22;4391;48.678;9.280;2023-07-16T14:08:28;37.90;99.90
8709;DHT22;4391;48.678;9.280;2023-07-16T14:10:59;37.30;99.90
8709;DHT22;4391;48.678;9.280;2023-07-16T14:13:26;35.10;93.50
8709;DHT22;4391;48.678;9.280;2023-07-16T14:15:53;33.90;86.90
8709;DHT22;4391;48.678;9.280;2023-07-16T14:18:19;32.80;76.40
8709;DHT22;4391;48.678;9.280;2023-07-16T14:20:46;31.50;67.10
8709;DHT22;4391;48.678;9.280;2023-07-16T14:23:14;30.50;61.70
8709;DHT22;4391;48.678;9.280;2023-07-16T14:25:41;29.90;60.90
8709;DHT22;4391;48.678;9.280;2023-07-16T14:28:08;29.60;59.60
8709;DHT22;4391;48.678;9.280;2023-07-16T14:30:35;29.90;64.60
8709;DHT22;4391;48.678;9.280;2023-07-16T14:33:02;31.00;76.40
8709;DHT22;4391;48.678;9.280;2023-07-16T14:35:29;31.70;79.70
8709;DHT22;4391;48.678;9.280;2023-07-16T14:37:56;31.20;75.90
8709;DHT22;4391;48.678;9.280;2023-07-16T14:40:25;30.20;68.40
8709;DHT22;4391;48.678;9.280;2023-07-16T14:42:52;29.50;64.70
8709;DHT22;4391;48.678;9.280;2023-07-16T14:45:19;29.10;61.60
8709;DHT22;4391;48.678;9.280;2023-07-16T14:47:46;28.90;61.40
8709;DHT22;4391;48.678;9.280;2023-07-16T14:50:12;28.70;61.00
8709;DHT22;4391;48.678;9.280;2023-07-16T14:52:39;28.30;61.50
8709;DHT22;4391;48.678;9.280;2023-07-16T14:55:07;28.30;63.10
8709;DHT22;4391;48.678;9.280;2023-07-16T14:57:35;28.30;63.80
8709;DHT22;4391;48.678;9.280;2023-07-16T15:00:03;28.60;66.80
8709;DHT22;4391;48.678;9.280;2023-07-16T15:02:32;28.60;67.20
8709;DHT22;4391;48.678;9.280;2023-07-16T15:04:59;29.40;74.60
8709;DHT22;4391;48.678;9.280;2023-07-16T15:07:26;29.20;73.20
8709;DHT22;4391;48.678;9.280;2023-07-16T15:09:52;29.00;72.80
8709;DHT22;4391;48.678;9.280;2023-07-16T15:12:19;29.40;75.10
8709;DHT22;4391;48.678;9.280;2023-07-16T15:14:47;29.10;73.90
8709;DHT22;4391;48.678;9.280;2023-07-16T15:17:14;29.50;78.00
8709;DHT22;4391;48.678;9.280;2023-07-16T15:19:42;29.40;77.90
8709;DHT22;4391;48.678;9.280;2023-07-16T15:22:09;29.10;74.60
8709;DHT22;4391;48.678;9.280;2023-07-16T15:24:36;28.80;72.60
8709;DHT22;4391;48.678;9.280;2023-07-16T15:27:03;28.50;70.00
8709;DHT22;4391;48.678;9.280;2023-07-16T15:29:30;28.20;66.60
8709;DHT22;4391;48.678;9.280;2023-07-16T15:31:58;28.00;67.50
8709;DHT22;4391;48.678;9.280;2023-07-16T15:34:25;27.60;65.30
8709;DHT22;4391;48.678;9.280;2023-07-16T15:36:52;27.30;64.80
8709;DHT22;4391;48.678;9.280;2023-07-16T15:39:19;27.20;64.10
8709;DHT22;4391;48.678;9.280;2023-07-16T15:41:46;27.00;63.30
8709;DHT22;4391;48.678;9.280;2023-07-16T15:44:12;27.00;65.30
8709;DHT22;4391;48.678;9.280;2023-07-16T15:46:39;27.00;66.90
8709;DHT22;4391;48.678;9.280;2023-07-16T15:49:07;26.80;64.70
8709;DHT22;4391;48.678;9.280;2023-07-16T15:51:34;26.90;66.90
8709;DHT22;4391;48.678;9.280;2023-07-16T15:54:02;27.00;68.00
8709;DHT22;4391;48.678;9.280;2023-07-16T15:56:31;27.10;69.70
8709;DHT22;4391;48.678;9.280;2023-07-16T15:58:57;27.40;73.20
8709;DHT22;4391;48.678;9.280;2023-07-16T16:01:26;27.50;73.90
8709;DHT22;4391;48.678;9.280;2023-07-16T16:03:53;27.80;77.50
8709;DHT22;4391;48.678;9.280;2023-07-16T16:06:21;28.00;77.60
8709;DHT22;4391;48.678;9.280;2023-07-16T16:08:48;28.00;78.10
8709;DHT22;4391;48.678;9.280;2023-07-16T16:11:14;27.70;77.40
8709;DHT22;4391;48.678;9.280;2023-07-16T16:13:41;27.40;75.70